Time;durP1;ratioP1;P1;durP2;ratioP2;P2;SDS_P1;SDS_P2;PMS_P1;PMS_P2;Temp;Humidity;BMP_temperature;BMP_pressure;BME280_temperature;BME280_humidity;BME280_pressure;Samples;Min_cycle;Max_cycle;Signal;HPM_P1;HPM_P2
2023/03/26 00:02:24;;;;;;;;;;;;;;;9.39;46.59;92287.34;2068327;69;20049;-76
2023/03/26 00:04:55;;;;;;;;;;;;;;;9.27;47.47;92286.63;2064971;69;20049;-77
2023/03/26 00:07:21;;;;;;;;;;;;;;;9.18;46.79;92281.88;2068553;69;20067;-76
2023/03/26 00:09:47;;;;;;;;;;;;;;;9.13;45.99;92280.91;2068514;69;20585;-76
2023/03/26 00:12:13;;;;;;;;;;;;;;;9.06;45.45;92276.25;2068336;69;20071;-74
2023/03/26 00:14:42;;;;;;;;;;;;;;;9.03;46.97;92274.69;2067910;69;20459;-74
2023/03/26 00:17:07;;;;;;;;;;;;;;;8.89;46.03;92260.56;2067803;69;20130;-75
2023/03/26 00:19:33;;;;;;;;;;;;;;;8.80;46.21;92267.03;2068718;69;20486;-74
2023/03/26 00:21:59;;;;;;;;;;;;;;;8.72;46.86;92260.19;2068535;69;20087;-75
2023/03/26 00:24:28;;;;;;;;;;;;;;;8.52;47.03;92273.69;2068081;69;20084;-76
2023/03/26 00:26:58;;;;;;;;;;;;;;;8.84;46.28;92264.47;2068703;69;20057;-76
2023/03/26 00:29:26;;;;;;;;;;;;;;;8.85;47.54;92277.16;2067971;69;20060;-74
2023/03/26 00:31:52;;;;;;;;;;;;;;;8.82;46.28;92266.41;2068492;69;20480;-75
2023/03/26 00:34:19;;;;;;;;;;;;;;;8.49;46.93;92267.25;2067845;69;20085;-75
2023/03/26 00:36:54;;;;;;;;;;;;;;;8.75;46.62;92267.38;2067636;69;20485;-74
2023/03/26 00:39:22;;;;;;;;;;;;;;;8.85;47.05;92273.63;2065278;69;20056;-74
2023/03/26 00:41:53;;;;;;;;;;;;;;;8.70;47.26;92266.38;2068567;69;20145;-74
2023/03/26 00:44:18;;;;;;;;;;;;;;;8.64;46.93;92263.94;2068446;69;20431;-74
2023/03/26 00:46:44;;;;;;;;;;;;;;;8.78;46.48;92257.72;2065033;69;20484;-74
2023/03/26 00:49:13;;;;;;;;;;;;;;;8.82;46.56;92241.13;2068452;69;20051;-74
2023/03/26 00:51:39;;;;;;;;;;;;;;;8.94;46.36;92239.06;2067919;69;20045;-72
2023/03/26 00:54:07;;;;;;;;;;;;;;;8.79;47.24;92240.28;2068483;69;20134;-75
2023/03/26 00:56:33;;;;;;;;;;;;;;;8.48;47.30;92243.34;2068489;69;20052;-76
2023/03/26 00:58:59;;;;;;;;;;;;;;;8.66;47.45;92238.09;2068190;69;20057;-75
2023/03/26 01:01:26;;;;;;;;;;;;;;;8.63;46.90;92234.44;2067696;69;20041;-74
2023/03/26 01:03:58;;;;;;;;;;;;;;;8.30;47.46;92239.41;2068396;69;20080;-75
2023/03/26 01:06:31;;;;;;;;;;;;;;;8.11;47.32;92237.53;2067817;69;20057;-74
2023/03/26 01:09:02;;;;;;;;;;;;;;;8.52;46.68;92237.97;2067785;69;20465;-74
2023/03/26 01:11:32;;;;;;;;;;;;;;;8.60;48.71;92237.72;2067353;69;20072;-75
2023/03/26 01:14:03;;;;;;;;;;;;;;;8.38;48.64;92243.47;2068100;69;20073;-73
2023/03/26 01:16:36;;;;;;;;;;;;;;;8.49;48.00;92238.47;2067608;69;20144;-75
2023/03/26 01:19:03;;;;;;;;;;;;;;;8.19;49.04;92237.28;2067788;69;20146;-73
2023/03/26 01:21:33;;;;;;;;;;;;;;;8.43;47.04;92222.00;2067846;69;20204;-75
2023/03/26 01:24:00;;;;;;;;;;;;;;;8.46;47.72;92226.38;2068464;69;20480;-72
2023/03/26 01:26:31;;;;;;;;;;;;;;;8.45;47.97;92227.72;2068311;69;20481;-74
2023/03/26 01:29:00;;;;;;;;;;;;;;;8.45;48.43;92222.13;2067789;69;20119;-74
2023/03/26 01:31:28;;;;;;;;;;;;;;;8.30;48.92;92228.19;2064954;69;20041;-74
2023/03/26 01:34:11;;;;;;;;;;;;;;;8.38;48.32;92212.59;2067909;69;20488;-74
2023/03/26 01:36:36;;;;;;;;;;;;;;;8.39;48.25;92218.94;2068366;69;20119;-74
2023/03/26 01:39:17;;;;;;;;;;;;;;;8.36;48.53;92214.53;2067538;69;20527;-74
2023/03/26 01:41:46;;;;;;;;;;;;;;;8.23;49.16;92217.91;2068081;69;20053;-75
2023/03/26 01:44:31;;;;;;;;;;;;;;;8.33;48.67;92215.72;2068269;69;20083;-75
2023/03/26 01:46:58;;;;;;;;;;;;;;;8.28;48.94;92225.22;2058504;69;20075;-75
2023/03/26 01:49:25;;;;;;;;;;;;;;;8.11;52.40;92226.31;2052085;70;20149;-75
2023/03/26 01:51:51;;;;;;;;;;;;;;;7.96;51.79;92219.09;2051998;70;20065;-75
2023/03/26 01:54:19;;;;;;;;;;;;;;;7.96;51.36;92226.75;2052000;70;20078;-75
2023/03/26 01:56:48;;;;;;;;;;;;;;;7.80;52.07;92221.63;2065037;69;20116;-76
2023/03/26 01:59:32;;;;;;;;;;;;;;;7.94;52.82;92215.44;2064914;69;20054;-76
2023/03/26 02:02:03;;;;;;;;;;;;;;;7.41;53.65;92242.88;2064293;69;20054;-76
2023/03/26 02:04:37;;;;;;;;;;;;;;;7.55;52.91;92241.72;2051992;70;20142;-76
2023/03/26 02:07:22;;;;;;;;;;;;;;;7.58;52.46;92220.94;2052001;70;20215;-74
2023/03/26 02:09:55;;;;;;;;;;;;;;;7.82;51.66;92235.75;2052045;70;20086;-75
2023/03/26 02:12:26;;;;;;;;;;;;;;;7.81;51.84;92225.16;2062081;69;20522;-75
2023/03/26 02:14:52;;;;;;;;;;;;;;;7.84;51.94;92227.47;2065040;69;20120;-75
2023/03/26 02:17:22;;;;;;;;;;;;;;;7.40;53.21;92228.16;2052084;69;20074;-75
2023/03/26 02:19:48;;;;;;;;;;;;;;;7.67;52.74;92210.25;2065173;69;20058;-76
2023/03/26 02:22:16;;;;;;;;;;;;;;;7.81;50.65;92208.34;2052189;70;20057;-75
2023/03/26 02:24:44;;;;;;;;;;;;;;;7.72;51.22;92209.88;2062587;69;20058;-75
2023/03/26 02:27:11;;;;;;;;;;;;;;;7.83;51.00;92212.00;2065707;69;20151;-74
2023/03/26 02:29:40;;;;;;;;;;;;;;;7.85;51.51;92202.97;2052738;70;20055;-76
2023/03/26 02:32:12;;;;;;;;;;;;;;;7.83;51.14;92206.41;2065038;69;20087;-76
2023/03/26 02:34:40;;;;;;;;;;;;;;;7.94;51.39;92207.75;2053689;69;20051;-76
2023/03/26 02:37:07;;;;;;;;;;;;;;;7.87;52.47;92209.44;2065908;69;20046;-77
2023/03/26 02:39:42;;;;;;;;;;;;;;;7.78;52.51;92212.34;2062718;69;20043;-75
2023/03/26 02:42:17;;;;;;;;;;;;;;;7.91;51.66;92211.75;2065467;69;20062;-76
2023/03/26 02:44:47;;;;;;;;;;;;;;;7.97;51.64;92203.00;2052333;69;20122;-76
2023/03/26 02:47:18;;;;;;;;;;;;;;;7.85;53.70;92197.38;2064900;69;20057;-74
2023/03/26 02:49:53;;;;;;;;;;;;;;;7.88;52.93;92205.31;2052432;70;20480;-75
2023/03/26 02:52:28;;;;;;;;;;;;;;;7.69;53.02;92202.69;2052808;70;20050;-75
2023/03/26 02:54:56;;;;;;;;;;;;;;;7.68;52.63;92206.09;2065387;69;20101;-75
2023/03/26 02:57:24;;;;;;;;;;;;;;;7.73;53.21;92205.00;2065055;69;20055;-76
2023/03/26 02:59:53;;;;;;;;;;;;;;;7.74;53.74;92195.25;2052472;70;20057;-74
2023/03/26 03:02:56;;;;;;;;;;;;;;;7.78;52.65;92190.66;2052344;69;20196;-74
2023/03/26 03:05:25;;;;;;;;;;;;;;;7.61;50.68;92191.72;2052592;70;20134;-75
2023/03/26 03:08:05;;;;;;;;;;;;;;;6.80;56.02;92192.06;2065479;69;20055;-75
2023/03/26 03:10:32;;;;;;;;;;;;;;;7.49;53.76;92174.13;2065693;69;20085;-76
2023/03/26 03:13:23;;;;;;;;;;;;;;;7.68;53.11;92159.19;2053307;69;20063;-75
2023/03/26 03:15:48;;;;;;;;;;;;;;;7.76;51.45;92151.31;2053186;70;20059;-76
2023/03/26 03:18:14;;;;;;;;;;;;;;;7.90;50.78;92149.38;2065834;69;20227;-75
2023/03/26 03:20:40;;;;;;;;;;;;;;;7.75;51.07;92133.03;2065827;69;20057;-76
2023/03/26 03:23:11;;;;;;;;;;;;;;;7.89;50.57;92141.59;2065512;69;20054;-75
2023/03/26 03:25:40;;;;;;;;;;;;;;;7.59;50.19;92146.03;2063062;69;20567;-75
2023/03/26 03:28:06;;;;;;;;;;;;;;;7.76;50.47;92150.56;2049072;70;20509;-76
2023/03/26 03:30:38;;;;;;;;;;;;;;;7.91;51.00;92138.91;2065330;69;20584;-75
2023/03/26 03:33:19;;;;;;;;;;;;;;;7.86;49.79;92129.50;2064994;69;20510;-75
2023/03/26 03:35:47;;;;;;;;;;;;;;;7.93;49.00;92133.44;2066223;69;20121;-75
2023/03/26 03:38:41;;;;;;;;;;;;;;;7.90;49.92;92126.97;2065987;69;20055;-75
2023/03/26 03:41:10;;;;;;;;;;;;;;;8.01;49.77;92110.75;2065598;69;20554;-75
2023/03/26 03:43:40;;;;;;;;;;;;;;;8.00;49.14;92112.81;2052774;69;20063;-76
2023/03/26 03:46:19;;;;;;;;;;;;;;;8.00;49.31;92112.81;2065298;69;20073;-76
2023/03/26 03:48:48;;;;;;;;;;;;;;;7.92;50.47;92115.13;2046351;69;20074;-75
2023/03/26 03:51:21;;;;;;;;;;;;;;;8.08;50.31;92113.31;2062599;69;20081;-76
2023/03/26 03:53:59;;;;;;;;;;;;;;;8.16;49.51;92110.28;2065442;69;20059;-76
2023/03/26 03:56:40;;;;;;;;;;;;;;;7.94;49.86;92092.13;2065426;69;20418;-77
2023/03/26 03:59:10;;;;;;;;;;;;;;;7.84;49.11;92100.66;2052422;70;20418;-76
2023/03/26 04:01:36;;;;;;;;;;;;;;;8.01;48.71;92105.88;2065276;69;20086;-75
2023/03/26 04:04:13;;;;;;;;;;;;;;;7.83;49.15;92105.53;2046733;69;20055;-75
2023/03/26 04:06:50;;;;;;;;;;;;;;;7.62;50.67;92097.19;2065461;69;20055;-75
2023/03/26 04:09:17;;;;;;;;;;;;;;;7.83;50.57;92099.16;2065436;69;20051;-75
2023/03/26 04:11:46;;;;;;;;;;;;;;;7.94;51.98;92092.13;2065510;69;20066;-75
2023/03/26 04:14:32;;;;;;;;;;;;;;;8.01;51.80;92079.91;2052208;70;20063;-76
2023/03/26 04:17:04;;;;;;;;;;;;;;;8.03;50.31;92089.19;2065387;69;20054;-76
2023/03/26 04:19:38;;;;;;;;;;;;;;;8.06;49.73;92082.38;2065535;69;20057;-75
2023/03/26 04:22:11;;;;;;;;;;;;;;;8.02;49.17;92073.00;2062765;69;20070;-75
2023/03/26 04:24:53;;;;;;;;;;;;;;;7.76;49.97;92072.13;2065421;69;20599;-75
2023/03/26 04:27:30;;;;;;;;;;;;;;;7.71;51.46;92068.34;2065601;69;20074;-75
2023/03/26 04:30:14;;;;;;;;;;;;;;;7.76;52.58;92061.66;2065499;69;20130;-76
2023/03/26 04:32:44;;;;;;;;;;;;;;;7.85;52.55;92060.06;2052705;70;20451;-76
2023/03/26 04:35:15;;;;;;;;;;;;;;;7.84;52.72;92064.22;2053101;69;20055;-76
2023/03/26 04:37:51;;;;;;;;;;;;;;;7.82;51.53;92047.25;2065611;69;20082;-76
2023/03/26 04:40:36;;;;;;;;;;;;;;;7.77;51.88;92025.94;2065546;69;20055;-74
2023/03/26 04:43:21;;;;;;;;;;;;;;;7.70;53.09;92024.09;2052608;70;20093;-74
2023/03/26 04:46:07;;;;;;;;;;;;;;;7.69;53.17;92031.06;2052783;69;20220;-75
2023/03/26 04:48:42;;;;;;;;;;;;;;;7.67;53.99;92031.69;2052755;70;20055;-79
2023/03/26 04:51:17;;;;;;;;;;;;;;;7.71;53.59;92029.13;2063290;69;20506;-75
2023/03/26 04:54:02;;;;;;;;;;;;;;;7.55;53.92;92039.34;2066193;69;20054;-75
2023/03/26 04:56:39;;;;;;;;;;;;;;;7.44;54.85;92045.66;2066449;69;20154;-76
2023/03/26 04:59:14;;;;;;;;;;;;;;;7.18;55.41;92041.97;2065779;69;20098;-74
2023/03/26 05:01:44;;;;;;;;;;;;;;;7.14;55.75;92048.03;2053212;69;20054;-75
2023/03/26 05:04:15;;;;;;;;;;;;;;;7.19;55.61;92052.53;2066376;69;20196;-76
2023/03/26 05:06:46;;;;;;;;;;;;;;;7.34;55.37;92048.56;2065854;69;20059;-76
2023/03/26 05:09:30;;;;;;;;;;;;;;;7.39;54.88;92050.28;2052907;69;20147;-77
2023/03/26 05:12:31;;;;;;;;;;;;;;;6.59;57.93;92050.16;2057457;69;20051;-76
2023/03/26 05:15:14;;;;;;;;;;;;;;;7.22;55.67;92059.75;2065605;69;20061;-77
2023/03/26 05:18:00;;;;;;;;;;;;;;;7.33;55.07;92052.69;2063776;69;20043;-77
2023/03/26 05:20:40;;;;;;;;;;;;;;;7.36;54.31;92054.28;2065452;69;20047;-74
2023/03/26 05:23:09;;;;;;;;;;;;;;;7.46;54.28;92057.72;2052265;69;20070;-75
2023/03/26 05:25:41;;;;;;;;;;;;;;;7.36;54.06;92054.28;2065315;69;20061;-76
2023/03/26 05:28:27;;;;;;;;;;;;;;;7.49;53.98;92053.69;2065325;69;20204;-76
2023/03/26 05:31:23;;;;;;;;;;;;;;;7.62;53.16;92049.59;2052607;69;20575;-75
2023/03/26 05:34:00;;;;;;;;;;;;;;;7.35;55.26;92044.44;2052574;69;20566;-75
2023/03/26 05:36:27;;;;;;;;;;;;;;;7.48;54.76;92034.72;2052175;69;20058;-75
2023/03/26 05:39:16;;;;;;;;;;;;;;;7.47;54.96;92033.22;2058303;69;20120;-75
2023/03/26 05:42:02;;;;;;;;;;;;;;;7.31;55.52;92028.09;2056490;69;20046;-75
2023/03/26 05:44:43;;;;;;;;;;;;;;;7.61;54.15;92031.31;2062781;69;20058;-76
2023/03/26 05:47:18;;;;;;;;;;;;;;;7.56;55.30;92021.94;2051963;69;20530;-75
2023/03/26 05:49:46;;;;;;;;;;;;;;;7.57;55.87;92023.41;2064975;69;20163;-76
2023/03/26 05:52:15;;;;;;;;;;;;;;;7.75;54.63;92012.56;2052198;69;20490;-75
2023/03/26 05:54:59;;;;;;;;;;;;;;;7.71;55.10;92006.72;2051888;70;20058;-74
2023/03/26 05:57:44;;;;;;;;;;;;;;;7.61;55.02;92001.22;2052135;70;20141;-76
2023/03/26 06:00:37;;;;;;;;;;;;;;;7.64;54.85;92002.78;2052953;70;20154;-75
2023/03/26 06:03:11;;;;;;;;;;;;;;;7.75;54.22;91998.56;2066323;69;20065;-76
2023/03/26 06:06:08;;;;;;;;;;;;;;;7.76;54.15;91996.47;2064834;69;20138;-75
2023/03/26 06:08:47;;;;;;;;;;;;;;;7.89;54.65;92004.28;2066812;69;20061;-76
2023/03/26 06:11:16;;;;;;;;;;;;;;;7.34;56.56;92003.78;2066522;69;20054;-76
2023/03/26 06:13:43;;;;;;;;;;;;;;;7.42;56.09;92014.72;2066581;69;20102;-76
2023/03/26 06:16:10;;;;;;;;;;;;;;;7.54;56.47;92016.19;2066696;69;20115;-75
2023/03/26 06:18:41;;;;;;;;;;;;;;;7.71;56.87;91994.78;2066255;69;20066;-73
2023/03/26 06:21:19;;;;;;;;;;;;;;;7.65;56.19;92011.94;2065476;69;20113;-75
2023/03/26 06:23:55;;;;;;;;;;;;;;;7.89;55.67;92010.59;2066495;69;20050;-74
2023/03/26 06:26:43;;;;;;;;;;;;;;;8.07;55.47;92005.34;2066137;69;20054;-76
2023/03/26 06:29:28;;;;;;;;;;;;;;;6.80;60.25;92002.56;2057926;69;20406;-76
2023/03/26 06:32:14;;;;;;;;;;;;;;;6.94;60.00;91996.41;2053083;70;20130;-75
2023/03/26 06:34:44;;;;;;;;;;;;;;;7.31;58.46;91988.91;2066683;69;20054;-74
2023/03/26 06:37:09;;;;;;;;;;;;;;;7.58;57.66;91979.31;2066612;69;20050;-75
2023/03/26 06:39:37;;;;;;;;;;;;;;;7.77;57.55;91976.25;2053637;70;20054;-76
2023/03/26 06:42:22;;;;;;;;;;;;;;;7.81;56.72;91965.28;2066225;69;20047;-73
2023/03/26 06:45:22;;;;;;;;;;;;;;;7.09;59.40;91956.75;2053081;69;20150;-75
2023/03/26 06:48:07;;;;;;;;;;;;;;;6.68;61.82;91943.03;2053031;70;20563;-76
2023/03/26 06:50:49;;;;;;;;;;;;;;;7.05;61.20;91946.03;2066232;69;20054;-75
2023/03/26 06:53:50;;;;;;;;;;;;;;;7.28;59.85;91928.53;2058559;69;20208;-75
2023/03/26 06:56:35;;;;;;;;;;;;;;;7.76;58.47;91913.16;2054402;69;20501;-75
2023/03/26 06:59:16;;;;;;;;;;;;;;;8.33;56.67;91919.19;2066346;69;20047;-74
2023/03/26 07:02:01;;;;;;;;;;;;;;;8.65;55.62;91928.72;2053144;70;20057;-76
2023/03/26 07:04:46;;;;;;;;;;;;;;;8.73;55.42;91925.63;2053366;70;20054;-77
2023/03/26 07:07:31;;;;;;;;;;;;;;;7.83;56.91;91933.84;2050326;70;20405;-77
2023/03/26 07:10:29;;;;;;;;;;;;;;;7.68;58.23;91945.56;2055860;69;20597;-76
2023/03/26 07:13:14;;;;;;;;;;;;;;;7.93;57.45;91942.13;2052541;70;20526;-76
2023/03/26 07:15:58;;;;;;;;;;;;;;;7.93;57.08;91930.91;2052640;70;20100;-75
2023/03/26 07:18:56;;;;;;;;;;;;;;;8.25;55.51;91935.56;2065649;69;20050;-75
2023/03/26 07:21:25;;;;;;;;;;;;;;;8.56;55.10;91924.00;2065586;69;20051;-74
2023/03/26 07:23:52;;;;;;;;;;;;;;;8.28;55.50;91908.38;2065459;69;20050;-76
2023/03/26 07:26:24;;;;;;;;;;;;;;;8.09;57.38;91892.59;2052734;70;20053;-76
2023/03/26 07:29:13;;;;;;;;;;;;;;;8.33;55.78;91891.16;2052490;69;20051;-76
2023/03/26 07:32:05;;;;;;;;;;;;;;;8.88;55.45;91887.84;2053724;69;20058;-76
2023/03/26 07:35:00;;;;;;;;;;;;;;;9.14;53.54;91880.09;2053504;69;20539;-76
2023/03/26 07:37:39;;;;;;;;;;;;;;;9.14;53.32;91866.06;2062666;69;20059;-76
2023/03/26 07:40:27;;;;;;;;;;;;;;;9.24;52.78;91846.19;2065450;69;20051;-76
2023/03/26 07:43:34;;;;;;;;;;;;;;;9.40;51.42;91838.63;2052523;69;20078;-75
2023/03/26 07:46:22;;;;;;;;;;;;;;;9.53;50.89;91828.69;2052452;70;20058;-76
2023/03/26 07:49:00;;;;;;;;;;;;;;;9.41;51.46;91823.94;2065412;69;20132;-76
2023/03/26 07:51:52;;;;;;;;;;;;;;;8.56;53.87;91833.50;2052786;69;20065;-75
2023/03/26 07:54:36;;;;;;;;;;;;;;;9.03;54.30;91836.72;2052643;70;20553;-76
2023/03/26 07:57:33;;;;;;;;;;;;;;;8.58;55.19;91845.56;2053096;70;20139;-74
2023/03/26 08:00:47;;;;;;;;;;;;;;;8.43;53.54;91834.94;2065456;69;20378;-74
2023/03/26 08:03:14;;;;;;;;;;;;;;;9.15;52.06;91825.38;2065192;69;20074;-76
2023/03/26 08:06:02;;;;;;;;;;;;;;;9.03;52.17;91810.72;2052329;70;20164;-76
2023/03/26 08:09:11;;;;;;;;;;;;;;;9.78;51.35;91800.47;2062721;69;20051;-76
2023/03/26 08:12:12;;;;;;;;;;;;;;;10.03;51.56;91798.84;2038372;70;20126;-74
2023/03/26 08:14:56;;;;;;;;;;;;;;;9.85;50.99;91795.84;2038385;70;20102;-76
2023/03/26 08:17:28;;;;;;;;;;;;;;;9.85;50.33;91795.84;2038012;70;20123;-75
2023/03/26 08:20:09;;;;;;;;;;;;;;;10.12;49.89;91789.44;2038265;70;20048;-75
2023/03/26 08:22:40;;;;;;;;;;;;;;;10.62;49.73;91802.34;2035511;70;20052;-75
2023/03/26 08:25:26;;;;;;;;;;;;;;;10.71;48.72;91788.66;2038394;70;20099;-76
2023/03/26 08:27:54;;;;;;;;;;;;;;;10.54;47.36;91778.78;2038439;70;20496;-75
2023/03/26 08:30:22;;;;;;;;;;;;;;;11.09;46.54;91773.50;2038456;70;20056;-74
2023/03/26 08:32:53;;;;;;;;;;;;;;;10.94;47.17;91766.50;2038393;70;20062;-75
2023/03/26 08:35:19;;;;;;;;;;;;;;;10.68;47.07;91757.63;2038519;70;20182;-73
2023/03/26 08:37:44;;;;;;;;;;;;;;;10.22;47.87;91756.19;2039273;70;20512;-74
2023/03/26 08:40:14;;;;;;;;;;;;;;;11.11;47.18;91753.88;2039176;70;20107;-75
2023/03/26 08:43:02;;;;;;;;;;;;;;;11.18;46.29;91755.59;2036169;70;20149;-74
2023/03/26 08:45:43;;;;;;;;;;;;;;;11.30;46.00;91766.66;2050645;69;20166;-75
2023/03/26 08:48:08;;;;;;;;;;;;;;;11.54;46.21;91771.88;2052701;70;20098;-75
2023/03/26 08:50:53;;;;;;;;;;;;;;;11.58;45.81;91775.56;2052708;70;20081;-74
2023/03/26 08:53:20;;;;;;;;;;;;;;;10.45;46.41;91772.03;2052664;70;20053;-75
2023/03/26 08:56:05;;;;;;;;;;;;;;;10.43;46.36;91769.84;2065622;69;20063;-75
2023/03/26 08:58:43;;;;;;;;;;;;;;;9.60;48.21;91785.50;2066131;69;20149;-73
2023/03/26 09:01:27;;;;;;;;;;;;;;;10.51;47.24;91777.94;2053182;69;20177;-75
2023/03/26 09:03:59;;;;;;;;;;;;;;;10.05;47.86;91784.88;2053217;70;20050;-76
2023/03/26 09:06:25;;;;;;;;;;;;;;;9.22;49.41;91782.25;2052920;70;20082;-76
2023/03/26 09:08:50;;;;;;;;;;;;;;;9.73;48.63;91767.91;2052891;70;20097;-74
2023/03/26 09:11:33;;;;;;;;;;;;;;;10.58;47.90;91759.97;2052891;70;20051;-74
2023/03/26 09:13:59;;;;;;;;;;;;;;;11.03;48.24;91767.59;2052528;70;20139;-75
2023/03/26 09:16:44;;;;;;;;;;;;;;;10.71;47.91;91755.59;2065252;69;20495;-76
2023/03/26 09:19:09;;;;;;;;;;;;;;;11.53;46.14;91757.06;2065439;69;20066;-76
2023/03/26 09:21:51;;;;;;;;;;;;;;;11.64;45.70;91738.50;2052626;69;20043;-76
2023/03/26 09:24:21;;;;;;;;;;;;;;;11.17;45.64;91734.41;2065110;69;20046;-76
2023/03/26 09:26:59;;;;;;;;;;;;;;;11.59;45.66;91726.31;2052482;70;20120;-76
2023/03/26 09:29:45;;;;;;;;;;;;;;;11.71;44.92;91712.69;2052589;70;20062;-74
2023/03/26 09:32:30;;;;;;;;;;;;;;;11.48;45.32;91718.78;2065072;69;20142;-74
2023/03/26 09:35:00;;;;;;;;;;;;;;;11.45;45.18;91706.72;2051973;69;20057;-74
2023/03/26 09:37:44;;;;;;;;;;;;;;;12.18;44.68;91708.22;2052408;70;20111;-74
2023/03/26 09:40:17;;;;;;;;;;;;;;;11.82;44.10;91699.78;2052408;69;20061;-75
2023/03/26 09:42:44;;;;;;;;;;;;;;;11.30;44.18;91693.41;2065906;69;20682;-74
2023/03/26 09:45:12;;;;;;;;;;;;;;;11.80;43.00;91704.56;2052860;70;20057;-74
2023/03/26 09:47:54;;;;;;;;;;;;;;;11.92;42.29;91697.38;2068527;69;20086;-75
2023/03/26 09:50:28;;;;;;;;;;;;;;;12.30;41.51;91700.22;2069293;69;20049;-75
2023/03/26 09:53:13;;;;;;;;;;;;;;;12.76;41.34;91697.72;2068711;69;20053;-76
2023/03/26 09:55:42;;;;;;;;;;;;;;;12.68;40.62;91694.59;2067902;69;20076;-75
2023/03/26 09:58:10;;;;;;;;;;;;;;;12.62;39.92;91702.84;2068601;69;20055;-75
2023/03/26 10:00:55;;;;;;;;;;;;;;;12.57;40.02;91698.41;2068762;69;20045;-75
2023/03/26 10:03:33;;;;;;;;;;;;;;;12.39;40.16;91692.81;2067968;69;20077;-74
2023/03/26 10:05:58;;;;;;;;;;;;;;;10.98;42.06;91675.13;2068568;69;20065;-74
2023/03/26 10:08:27;;;;;;;;;;;;;;;11.50;41.56;91681.50;2068576;69;20052;-74
2023/03/26 10:10:58;;;;;;;;;;;;;;;12.23;40.95;91690.06;2068559;69;20045;-74
2023/03/26 10:13:26;;;;;;;;;;;;;;;11.62;41.02;91688.38;2068196;69;20175;-74
2023/03/26 10:16:13;;;;;;;;;;;;;;;11.47;42.06;91686.34;2068029;69;20045;-75
2023/03/26 10:18:57;;;;;;;;;;;;;;;11.98;41.07;91698.97;2068767;69;20080;-74
2023/03/26 10:21:23;;;;;;;;;;;;;;;11.88;41.25;91699.28;2068765;69;20057;-74
2023/03/26 10:24:15;;;;;;;;;;;;;;;12.02;40.96;91699.84;2068695;69;20048;-74
2023/03/26 10:26:40;;;;;;;;;;;;;;;12.12;41.80;91699.53;2061298;69;20057;-75
2023/03/26 10:29:09;;;;;;;;;;;;;;;12.19;40.82;91704.78;2068698;69;20045;-75
2023/03/26 10:31:54;;;;;;;;;;;;;;;11.95;41.31;91698.88;2068115;69;20077;-75
2023/03/26 10:34:35;;;;;;;;;;;;;;;12.18;41.02;91706.13;2068769;69;20049;-74
2023/03/26 10:37:16;;;;;;;;;;;;;;;12.50;41.18;91702.38;2068721;69;20115;-75
2023/03/26 10:39:45;;;;;;;;;;;;;;;12.18;41.23;91694.84;2069216;69;20144;-75
2023/03/26 10:42:10;;;;;;;;;;;;;;;12.41;41.16;91690.75;2068856;69;20048;-75
2023/03/26 10:44:42;;;;;;;;;;;;;;;12.46;40.37;91695.22;2067937;69;20073;-75
2023/03/26 10:47:19;;;;;;;;;;;;;;;12.79;41.18;91690.78;2061868;69;20488;-75
2023/03/26 10:50:04;;;;;;;;;;;;;;;13.09;40.93;91688.28;2052890;70;20053;-76
2023/03/26 10:52:35;;;;;;;;;;;;;;;13.11;40.15;91682.00;2053064;70;20090;-75
2023/03/26 10:55:17;;;;;;;;;;;;;;;13.62;39.84;91687.31;2052691;70;20134;-75
2023/03/26 10:57:45;;;;;;;;;;;;;;;13.90;38.67;91689.63;2065699;69;20184;-74
2023/03/26 11:00:14;;;;;;;;;;;;;;;13.46;39.58;91692.41;2052935;70;20047;-75
2023/03/26 11:02:45;;;;;;;;;;;;;;;14.37;39.65;91688.97;2052769;70;20047;-75
2023/03/26 11:05:14;;;;;;;;;;;;;;;15.08;39.07;91684.72;2053063;70;20069;-75
2023/03/26 11:07:40;;;;;;;;;;;;;;;14.83;38.46;91680.44;2052984;70;20050;-74
2023/03/26 11:10:08;;;;;;;;;;;;;;;14.89;38.06;91680.66;2053098;70;20051;-73
2023/03/26 11:12:43;;;;;;;;;;;;;;;14.54;38.04;91684.56;2052693;70;20443;-74
2023/03/26 11:15:15;;;;;;;;;;;;;;;13.90;37.97;91681.16;2066157;69;20074;-75
2023/03/26 11:17:46;;;;;;;;;;;;;;;13.78;38.64;91678.63;2053139;70;20568;-74
2023/03/26 11:20:16;;;;;;;;;;;;;;;13.89;37.69;91682.53;2053063;70;20047;-74
2023/03/26 11:22:49;;;;;;;;;;;;;;;13.92;38.56;91667.06;2053074;70;20061;-74
2023/03/26 11:25:24;;;;;;;;;;;;;;;13.45;37.95;91663.41;2053170;70;20050;-75
2023/03/26 11:28:08;;;;;;;;;;;;;;;13.94;36.76;91658.63;2052971;70;20059;-75
2023/03/26 11:30:46;;;;;;;;;;;;;;;13.78;36.46;91661.66;2053025;70;20086;-75
2023/03/26 11:33:21;;;;;;;;;;;;;;;13.99;37.14;91655.28;2052653;70;20142;-75
2023/03/26 11:35:49;;;;;;;;;;;;;;;14.03;37.23;91649.03;2052512;70;20055;-74
2023/03/26 11:38:21;;;;;;;;;;;;;;;14.18;36.67;91648.06;2052742;70;20050;-75
2023/03/26 11:40:50;;;;;;;;;;;;;;;14.41;36.83;91645.91;2052696;70;20149;-75
2023/03/26 11:43:35;;;;;;;;;;;;;;;13.96;37.27;91644.56;2065671;69;20433;-75
2023/03/26 11:46:02;;;;;;;;;;;;;;;13.87;37.04;91642.84;2065628;69;20146;-75
2023/03/26 11:48:32;;;;;;;;;;;;;;;12.96;37.79;91647.59;2052504;70;20128;-75
2023/03/26 11:51:21;;;;;;;;;;;;;;;12.94;38.56;91643.97;2065830;69;20074;-75
2023/03/26 11:53:47;;;;;;;;;;;;;;;12.27;39.58;91638.72;2050883;69;20104;-75
2023/03/26 11:56:32;;;;;;;;;;;;;;;12.49;39.97;91642.38;2052801;70;20047;-75
2023/03/26 11:59:04;;;;;;;;;;;;;;;13.21;39.25;91643.50;2052613;70;20074;-74
2023/03/26 12:01:43;;;;;;;;;;;;;;;13.14;39.24;91641.13;2065366;69;20054;-75
2023/03/26 12:04:12;;;;;;;;;;;;;;;13.02;39.77;91640.72;2052964;69;20073;-75
2023/03/26 12:06:38;;;;;;;;;;;;;;;13.19;40.35;91656.84;2052808;70;20051;-74
2023/03/26 12:09:14;;;;;;;;;;;;;;;12.60;41.18;91655.50;2052572;69;20138;-74
2023/03/26 12:11:40;;;;;;;;;;;;;;;12.75;42.17;91658.84;2052810;70;20149;-74
2023/03/26 12:14:05;;;;;;;;;;;;;;;12.83;41.80;91654.19;2052773;70;20100;-74
2023/03/26 12:16:32;;;;;;;;;;;;;;;12.98;42.46;91658.97;2052684;70;20474;-74
2023/03/26 12:19:06;;;;;;;;;;;;;;;12.39;43.83;91658.94;2052470;70;20043;-75
2023/03/26 12:22:03;;;;;;;;;;;;;;;12.37;44.43;91668.06;2065124;69;20050;-75
2023/03/26 12:24:33;;;;;;;;;;;;;;;11.92;43.45;91668.44;2058996;69;20148;-75
2023/03/26 12:27:27;;;;;;;;;;;;;;;12.23;43.82;91656.22;2065339;69;20067;-75
2023/03/26 12:30:10;;;;;;;;;;;;;;;12.70;42.96;91650.22;2051695;70;20053;-75
2023/03/26 12:32:40;;;;;;;;;;;;;;;12.66;43.01;91650.06;2052234;70;20054;-75
2023/03/26 12:35:17;;;;;;;;;;;;;;;12.59;43.24;91648.38;2052182;70;20102;-75
2023/03/26 12:37:45;;;;;;;;;;;;;;;12.70;45.27;91644.56;2051718;70;20445;-75
2023/03/26 12:40:24;;;;;;;;;;;;;;;12.69;45.37;91636.72;2053131;69;20055;-75
2023/03/26 12:42:51;;;;;;;;;;;;;;;12.55;45.67;91641.88;2053343;70;20082;-75
2023/03/26 12:45:31;;;;;;;;;;;;;;;12.42;47.43;91637.88;2053138;70;20059;-75
2023/03/26 12:47:59;;;;;;;;;;;;;;;12.29;47.86;91653.63;2052697;70;20114;-75
2023/03/26 12:50:31;;;;;;;;;;;;;;;12.30;48.88;91666.38;2046765;70;20474;-75
2023/03/26 12:53:07;;;;;;;;;;;;;;;12.08;46.68;91666.25;2052883;70;20441;-74
2023/03/26 12:55:35;;;;;;;;;;;;;;;11.69;48.21;91673.16;2053683;70;20051;-75
2023/03/26 12:58:16;;;;;;;;;;;;;;;11.80;52.03;91677.09;2054521;70;20254;-75
2023/03/26 13:00:54;;;;;;;;;;;;;;;11.70;52.39;91654.88;2054193;69;20046;-74
2023/03/26 13:03:51;;;;;;;;;;;;;;;11.63;51.28;91660.91;2066452;69;20082;-74
2023/03/26 13:06:39;;;;;;;;;;;;;;;11.49;55.10;91657.50;2053123;69;20046;-75
2023/03/26 13:09:14;;;;;;;;;;;;;;;11.24;52.23;91655.81;2050606;69;20120;-75
2023/03/26 13:11:49;;;;;;;;;;;;;;;11.41;56.40;91644.56;2053034;70;20578;-73
2023/03/26 13:14:32;;;;;;;;;;;;;;;11.39;56.82;91638.81;2052893;70;20105;-74
2023/03/26 13:17:06;;;;;;;;;;;;;;;11.20;58.39;91645.09;2065958;69;20107;-73
2023/03/26 13:19:38;;;;;;;;;;;;;;;11.44;59.13;91648.16;2052616;70;20053;-73
2023/03/26 13:22:23;;;;;;;;;;;;;;;11.48;58.56;91631.44;2052724;70;20414;-74
2023/03/26 13:25:08;;;;;;;;;;;;;;;11.32;58.41;91633.59;2065565;69;20070;-73
2023/03/26 13:27:40;;;;;;;;;;;;;;;11.30;57.67;91620.13;2052416;70;20089;-74
2023/03/26 13:30:06;;;;;;;;;;;;;;;11.44;56.31;91620.72;2065407;69;20146;-74
2023/03/26 13:32:38;;;;;;;;;;;;;;;11.40;56.91;91612.09;2052233;70;20049;-74
2023/03/26 13:35:10;;;;;;;;;;;;;;;11.43;56.79;91618.56;2052147;70;20490;-73
2023/03/26 13:37:48;;;;;;;;;;;;;;;11.43;57.55;91613.63;2052335;69;20054;-75